Strona główna
METAR-TAF:

METAR-TAF

Lotnisko :

Port lotniczy Dżudda

Dżudda, Arabia Saudyjska

Szerokość geograficzna: 21-42N, Długość geograficzna: 039-11E, wysokość: 15 m

Aktualna obserwacja pogody

Raport powstał 10 minut temu, godzina 12:00 UTC
Wiatr 10 kt od zachód
Temperatura 38°C
Wilgotność 31%
Ciśnienie 1003 hPa
Widzialność 10 km lub więcej
Brak chmur poniżej 1500 m i brak chmur cumulonimbus

METAR: OEJN 161200Z 27010KT CAVOK 38/18 Q1003 NOSIG

czas: 15:10 (12:10 UTC)

Prognoza

Raport powstał 1 godzina i 10 minut temu, godzina 11:00 UTC
Prognoza ważna od 16 godzina 12 UTC do 17 godzina 18 UTC
Wiatr 14 kt od zachód
Widzialność 10 km lub więcej
Mało chmury na wysokości 4000 ft
Rozproszone chmury na wysokości 10000 ft
Stopniowe zmiany
od 16 godzina 18 UTC do 16 godzina 20 UTC
Wiatr 3 kt z kierunków zmiennych

TAF: OEJN 161100Z 1612/1718 28014KT 9999 FEW040 SCT100 BECMG 1618/1620 VRB03KT

Obserwacja i prognoza pogody dla ponad 4000 lotnisk (raport METAR i TAF).

Dostępne stacje oznaczono żółtymi i czerwonymi punktami na mapie.

Najedź kursorem aby zobaczyć nazwę stacji.

Kliknij aby zobaczyć obserwacje i prognozy pogody.

Aby zmienić mapę: kliknij na zielony przycisk z czarnym krzyżykiem, aby powiększyć; na zielony przycisk z myślnikiem, aby pomniejszyć; na zielone strzałki, aby przejść do map sąsiednich.


METAR-TAF: